sensor_id;sensor_type;location;lat;lon;timestamp;pressure;altitude;pressure_sealevel;temperature;humidity
61035;BME280;46916;40.564;-7.958;2022-08-19T00:01:19;97486.63;;;23.67;29.55
61035;BME280;46916;40.564;-7.958;2022-08-19T00:03:20;97483.97;;;23.67;29.41
61035;BME280;46916;40.564;-7.958;2022-08-19T00:05:21;97484.38;;;23.64;29.23
61035;BME280;46916;40.564;-7.958;2022-08-19T00:07:22;97482.31;;;23.59;29.58
61035;BME280;46916;40.564;-7.958;2022-08-19T00:09:24;97487.28;;;23.56;29.38
61035;BME280;46916;40.564;-7.958;2022-08-19T00:11:26;97485.22;;;23.51;29.50
61035;BME280;46916;40.564;-7.958;2022-08-19T00:13:27;97490.19;;;23.47;29.54
61035;BME280;46916;40.564;-7.958;2022-08-19T00:15:28;97486.06;;;23.45;29.45
61035;BME280;46916;40.564;-7.958;2022-08-19T00:17:30;97486.50;;;23.42;29.56
61035;BME280;46916;40.564;-7.958;2022-08-19T00:19:31;97489.38;;;23.40;29.72
61035;BME280;46916;40.564;-7.958;2022-08-19T00:21:31;97490.59;;;23.38;29.58
61035;BME280;46916;40.564;-7.958;2022-08-19T00:23:32;97497.81;;;23.37;29.84
61035;BME280;46916;40.564;-7.958;2022-08-19T00:25:35;97496.59;;;23.33;29.52
61035;BME280;46916;40.564;-7.958;2022-08-19T00:27:37;97493.91;;;23.33;29.73
61035;BME280;46916;40.564;-7.958;2022-08-19T00:29:38;97490.66;;;23.31;29.73
61035;BME280;46916;40.564;-7.958;2022-08-19T00:31:39;97492.28;;;23.32;29.99
61035;BME280;46916;40.564;-7.958;2022-08-19T00:33:41;97490.66;;;23.31;29.81
61035;BME280;46916;40.564;-7.958;2022-08-19T00:35:42;97489.38;;;23.34;30.00
61035;BME280;46916;40.564;-7.958;2022-08-19T00:37:42;97494.72;;;23.34;29.92
61035;BME280;46916;40.564;-7.958;2022-08-19T00:39:44;97495.56;;;23.34;30.04
61035;BME280;46916;40.564;-7.958;2022-08-19T00:41:45;97496.38;;;23.35;29.88
61035;BME280;46916;40.564;-7.958;2022-08-19T00:44:09;97491.03;;;23.35;30.01
61035;BME280;46916;40.564;-7.958;2022-08-19T00:46:10;97493.09;;;23.33;30.01
61035;BME280;46916;40.564;-7.958;2022-08-19T00:48:11;97494.31;;;23.30;30.11
61035;BME280;46916;40.564;-7.958;2022-08-19T00:50:15;97488.97;;;23.30;30.41
61035;BME280;46916;40.564;-7.958;2022-08-19T00:52:24;97489.59;;;23.26;30.13
61035;BME280;46916;40.564;-7.958;2022-08-19T00:54:29;97502.38;;;23.23;30.49
61035;BME280;46916;40.564;-7.958;2022-08-19T00:56:32;97496.41;;;23.21;30.48
61035;BME280;46916;40.564;-7.958;2022-08-19T00:58:35;97501.34;;;23.18;30.17
61035;BME280;46916;40.564;-7.958;2022-08-19T01:00:37;97493.94;;;23.13;30.40
61035;BME280;46916;40.564;-7.958;2022-08-19T01:02:38;97494.97;;;23.06;30.60
61035;BME280;46916;40.564;-7.958;2022-08-19T01:04:39;97491.91;;;23.02;30.64
61035;BME280;46916;40.564;-7.958;2022-08-19T01:06:40;97498.28;;;23.01;30.80
61035;BME280;46916;40.564;-7.958;2022-08-19T01:08:41;97496.88;;;22.98;30.59
61035;BME280;46916;40.564;-7.958;2022-08-19T01:10:54;97494.38;;;22.97;30.73
61035;BME280;46916;40.564;-7.958;2022-08-19T01:12:57;97497.69;;;22.92;30.85
61035;BME280;46916;40.564;-7.958;2022-08-19T01:14:58;97498.72;;;22.91;30.79
61035;BME280;46916;40.564;-7.958;2022-08-19T01:17:00;97496.84;;;22.92;30.76
61035;BME280;46916;40.564;-7.958;2022-08-19T01:19:02;97498.03;;;22.89;31.19
61035;BME280;46916;40.564;-7.958;2022-08-19T01:21:09;97491.47;;;22.85;31.05
61035;BME280;46916;40.564;-7.958;2022-08-19T01:23:12;97497.25;;;22.82;31.21
61035;BME280;46916;40.564;-7.958;2022-08-19T01:25:19;97499.91;;;22.82;31.41
61035;BME280;46916;40.564;-7.958;2022-08-19T01:27:20;97494.16;;;22.79;31.22
61035;BME280;46916;40.564;-7.958;2022-08-19T01:29:22;97503.81;;;22.80;31.03
61035;BME280;46916;40.564;-7.958;2022-08-19T01:31:26;97493.34;;;22.78;31.47
61035;BME280;46916;40.564;-7.958;2022-08-19T01:33:30;97502.59;;;22.75;31.42
61035;BME280;46916;40.564;-7.958;2022-08-19T01:35:31;97496.59;;;22.73;31.29
61035;BME280;46916;40.564;-7.958;2022-08-19T01:38:04;97492.31;;;22.72;31.55
61035;BME280;46916;40.564;-7.958;2022-08-19T01:40:09;97487.38;;;22.76;31.22
61035;BME280;46916;40.564;-7.958;2022-08-19T01:42:10;97492.72;;;22.76;31.56
61035;BME280;46916;40.564;-7.958;2022-08-19T01:44:14;97491.91;;;22.75;31.52
61035;BME280;46916;40.564;-7.958;2022-08-19T01:46:15;97489.44;;;22.74;31.55
61035;BME280;46916;40.564;-7.958;2022-08-19T01:48:16;97491.47;;;22.72;31.64
61035;BME280;46916;40.564;-7.958;2022-08-19T01:50:16;97490.44;;;22.73;31.29
61035;BME280;46916;40.564;-7.958;2022-08-19T01:52:17;97493.53;;;22.77;31.67
61035;BME280;46916;40.564;-7.958;2022-08-19T01:54:19;97491.91;;;22.75;31.68
61035;BME280;46916;40.564;-7.958;2022-08-19T01:56:20;97493.13;;;22.73;31.56
61035;BME280;46916;40.564;-7.958;2022-08-19T01:58:26;97489.84;;;22.71;31.62
61035;BME280;46916;40.564;-7.958;2022-08-19T02:00:32;97486.53;;;22.69;31.55
61035;BME280;46916;40.564;-7.958;2022-08-19T02:02:32;97487.59;;;22.68;31.75
61035;BME280;46916;40.564;-7.958;2022-08-19T02:04:34;97484.09;;;22.67;31.74
61035;BME280;46916;40.564;-7.958;2022-08-19T02:06:35;97487.16;;;22.64;31.57
61035;BME280;46916;40.564;-7.958;2022-08-19T02:08:37;97490.25;;;22.61;31.64
61035;BME280;46916;40.564;-7.958;2022-08-19T02:10:42;97488.19;;;22.57;31.74
61035;BME280;46916;40.564;-7.958;2022-08-19T02:12:44;97491.28;;;22.54;31.88
61035;BME280;46916;40.564;-7.958;2022-08-19T02:14:45;97488.00;;;22.52;31.96
61035;BME280;46916;40.564;-7.958;2022-08-19T02:16:46;97485.72;;;22.48;32.10
61035;BME280;46916;40.564;-7.958;2022-08-19T02:18:47;97491.47;;;22.45;32.17
61035;BME280;46916;40.564;-7.958;2022-08-19T02:20:50;97488.78;;;22.39;32.22
61035;BME280;46916;40.564;-7.958;2022-08-19T02:22:51;97486.53;;;22.36;32.33
61035;BME280;46916;40.564;-7.958;2022-08-19T02:24:53;97484.25;;;22.33;32.24
61035;BME280;46916;40.564;-7.958;2022-08-19T02:26:54;97480.78;;;22.32;32.02
61035;BME280;46916;40.564;-7.958;2022-08-19T02:28:55;97483.44;;;22.32;32.37
61035;BME280;46916;40.564;-7.958;2022-08-19T02:30:56;97485.28;;;22.32;32.24
61035;BME280;46916;40.564;-7.958;2022-08-19T02:32:56;97486.91;;;22.33;32.39
61035;BME280;46916;40.564;-7.958;2022-08-19T02:34:58;97486.75;;;22.34;32.28
61035;BME280;46916;40.564;-7.958;2022-08-19T02:36:58;97485.91;;;22.34;32.40
61035;BME280;46916;40.564;-7.958;2022-08-19T02:38:59;97487.56;;;22.35;32.51
61035;BME280;46916;40.564;-7.958;2022-08-19T02:41:03;97492.06;;;22.34;32.63
61035;BME280;46916;40.564;-7.958;2022-08-19T02:43:07;97483.84;;;22.36;32.81
61035;BME280;46916;40.564;-7.958;2022-08-19T02:45:08;97485.50;;;22.37;32.67
61035;BME280;46916;40.564;-7.958;2022-08-19T02:47:10;97491.25;;;22.34;32.40
61035;BME280;46916;40.564;-7.958;2022-08-19T02:49:10;97488.59;;;22.34;32.76
61035;BME280;46916;40.564;-7.958;2022-08-19T02:51:23;97489.41;;;22.34;32.86
61035;BME280;46916;40.564;-7.958;2022-08-19T02:53:26;97488.59;;;22.40;32.81
61035;BME280;46916;40.564;-7.958;2022-08-19T02:55:27;97492.91;;;22.41;32.87
61035;BME280;46916;40.564;-7.958;2022-08-19T02:57:30;97497.63;;;22.39;32.92
61035;BME280;46916;40.564;-7.958;2022-08-19T02:59:32;97491.25;;;22.40;32.94
61035;BME280;46916;40.564;-7.958;2022-08-19T03:01:33;97501.31;;;22.38;32.61
61035;BME280;46916;40.564;-7.958;2022-08-19T03:03:34;97500.69;;;22.36;32.82
61035;BME280;46916;40.564;-7.958;2022-08-19T03:05:34;97510.34;;;22.37;32.89
61035;BME280;46916;40.564;-7.958;2022-08-19T03:07:36;97504.38;;;22.35;32.96
61035;BME280;46916;40.564;-7.958;2022-08-19T03:09:37;97499.25;;;22.34;32.74
61035;BME280;46916;40.564;-7.958;2022-08-19T03:11:38;97500.09;;;22.34;32.87
61035;BME280;46916;40.564;-7.958;2022-08-19T03:13:39;97508.28;;;22.33;33.12
61035;BME280;46916;40.564;-7.958;2022-08-19T03:15:42;97506.44;;;22.33;33.06
61035;BME280;46916;40.564;-7.958;2022-08-19T03:17:43;97503.34;;;22.30;33.20
61035;BME280;46916;40.564;-7.958;2022-08-19T03:19:44;97502.13;;;22.25;33.17
61035;BME280;46916;40.564;-7.958;2022-08-19T03:21:45;97506.63;;;22.25;33.08
61035;BME280;46916;40.564;-7.958;2022-08-19T03:23:46;97512.38;;;22.22;33.30
61035;BME280;46916;40.564;-7.958;2022-08-19T03:25:48;97507.44;;;22.19;33.18
61035;BME280;46916;40.564;-7.958;2022-08-19T03:27:50;97511.31;;;22.16;33.12
61035;BME280;46916;40.564;-7.958;2022-08-19T03:29:51;97506.19;;;22.15;33.45
61035;BME280;46916;40.564;-7.958;2022-08-19T03:31:52;97504.97;;;22.17;33.14
61035;BME280;46916;40.564;-7.958;2022-08-19T03:33:52;97507.81;;;22.16;33.08
61035;BME280;46916;40.564;-7.958;2022-08-19T03:36:23;97512.91;;;22.11;33.28
61035;BME280;46916;40.564;-7.958;2022-08-19T03:38:24;97507.78;;;22.09;33.36
61035;BME280;46916;40.564;-7.958;2022-08-19T03:40:25;97506.97;;;22.09;33.48
61035;BME280;46916;40.564;-7.958;2022-08-19T03:42:26;97509.00;;;22.07;33.71
61035;BME280;46916;40.564;-7.958;2022-08-19T03:44:27;97508.41;;;22.05;33.64
61035;BME280;46916;40.564;-7.958;2022-08-19T03:46:30;97507.97;;;22.01;33.90
61035;BME280;46916;40.564;-7.958;2022-08-19T03:48:33;97503.25;;;22.03;33.57
61035;BME280;46916;40.564;-7.958;2022-08-19T03:50:38;97510.00;;;21.99;33.96
61035;BME280;46916;40.564;-7.958;2022-08-19T03:52:39;97502.59;;;21.94;33.91
61035;BME280;46916;40.564;-7.958;2022-08-19T03:54:40;97513.91;;;21.96;34.10
61035;BME280;46916;40.564;-7.958;2022-08-19T03:56:42;97507.13;;;21.94;34.08
61035;BME280;46916;40.564;-7.958;2022-08-19T03:58:44;97512.66;;;21.92;34.13
61035;BME280;46916;40.564;-7.958;2022-08-19T04:00:45;97515.34;;;21.92;34.29
61035;BME280;46916;40.564;-7.958;2022-08-19T04:02:45;97513.66;;;21.91;34.27
61035;BME280;46916;40.564;-7.958;2022-08-19T04:04:46;97519.00;;;21.91;34.20
61035;BME280;46916;40.564;-7.958;2022-08-19T04:06:47;97514.09;;;21.88;34.05
61035;BME280;46916;40.564;-7.958;2022-08-19T04:08:50;97515.50;;;21.84;34.21
61035;BME280;46916;40.564;-7.958;2022-08-19T04:10:51;97512.84;;;21.84;34.32
61035;BME280;46916;40.564;-7.958;2022-08-19T04:12:52;97513.03;;;21.83;34.31
61035;BME280;46916;40.564;-7.958;2022-08-19T04:14:52;97517.16;;;21.85;34.10
61035;BME280;46916;40.564;-7.958;2022-08-19T04:16:53;97518.16;;;21.84;34.05
61035;BME280;46916;40.564;-7.958;2022-08-19T04:18:55;97515.50;;;21.84;34.55
61035;BME280;46916;40.564;-7.958;2022-08-19T04:20:57;97513.41;;;21.80;34.55
61035;BME280;46916;40.564;-7.958;2022-08-19T04:22:57;97512.84;;;21.84;34.68
61035;BME280;46916;40.564;-7.958;2022-08-19T04:24:58;97512.19;;;21.82;34.47
61035;BME280;46916;40.564;-7.958;2022-08-19T04:27:00;97515.50;;;21.84;34.41
61035;BME280;46916;40.564;-7.958;2022-08-19T04:29:04;97511.81;;;21.85;34.26
61035;BME280;46916;40.564;-7.958;2022-08-19T04:31:05;97523.69;;;21.83;34.49
61035;BME280;46916;40.564;-7.958;2022-08-19T04:33:06;97518.16;;;21.84;34.70
61035;BME280;46916;40.564;-7.958;2022-08-19T04:35:07;97517.31;;;21.84;34.43
61035;BME280;46916;40.564;-7.958;2022-08-19T04:37:08;97516.06;;;21.80;34.67
61035;BME280;46916;40.564;-7.958;2022-08-19T04:39:18;97513.81;;;21.76;34.57
61035;BME280;46916;40.564;-7.958;2022-08-19T04:41:19;97515.47;;;21.77;34.62
61035;BME280;46916;40.564;-7.958;2022-08-19T04:43:38;97512.41;;;21.81;34.56
61035;BME280;46916;40.564;-7.958;2022-08-19T04:45:39;97517.50;;;21.75;34.70
61035;BME280;46916;40.564;-7.958;2022-08-19T04:47:41;97514.00;;;21.75;34.61
61035;BME280;46916;40.564;-7.958;2022-08-19T04:49:44;97520.56;;;21.72;35.07
61035;BME280;46916;40.564;-7.958;2022-08-19T04:51:46;97514.44;;;21.72;34.65
61035;BME280;46916;40.564;-7.958;2022-08-19T04:53:50;97513.41;;;21.73;34.94
61035;BME280;46916;40.564;-7.958;2022-08-19T04:55:51;97518.34;;;21.76;34.74
61035;BME280;46916;40.564;-7.958;2022-08-19T04:57:53;97516.25;;;21.71;35.03
61035;BME280;46916;40.564;-7.958;2022-08-19T04:59:56;97521.78;;;21.70;35.08
61035;BME280;46916;40.564;-7.958;2022-08-19T05:01:57;97524.00;;;21.66;34.82
61035;BME280;46916;40.564;-7.958;2022-08-19T05:03:59;97522.44;;;21.72;34.70
61035;BME280;46916;40.564;-7.958;2022-08-19T05:06:06;97522.59;;;21.70;34.86
61035;BME280;46916;40.564;-7.958;2022-08-19T05:08:12;97531.41;;;21.71;34.74
61035;BME280;46916;40.564;-7.958;2022-08-19T05:10:13;97525.91;;;21.72;35.08
61035;BME280;46916;40.564;-7.958;2022-08-19T05:12:14;97521.56;;;21.71;34.97
61035;BME280;46916;40.564;-7.958;2022-08-19T05:14:15;97536.75;;;21.71;34.83
61035;BME280;46916;40.564;-7.958;2022-08-19T05:16:18;97521.78;;;21.70;34.97
61035;BME280;46916;40.564;-7.958;2022-08-19T05:18:19;97537.16;;;21.68;34.78
61035;BME280;46916;40.564;-7.958;2022-08-19T05:20:39;97537.16;;;21.68;34.84
61035;BME280;46916;40.564;-7.958;2022-08-19T05:22:58;97533.66;;;21.67;34.67
61035;BME280;46916;40.564;-7.958;2022-08-19T05:24:58;97542.50;;;21.68;34.90
61035;BME280;46916;40.564;-7.958;2022-08-19T05:27:01;97542.06;;;21.71;35.05
61035;BME280;46916;40.564;-7.958;2022-08-19T05:29:03;97537.16;;;21.68;35.06
61035;BME280;46916;40.564;-7.958;2022-08-19T05:31:04;97545.56;;;21.65;35.17
61035;BME280;46916;40.564;-7.958;2022-08-19T05:33:04;97533.88;;;21.66;35.37
61035;BME280;46916;40.564;-7.958;2022-08-19T05:35:06;97548.22;;;21.65;35.21
61035;BME280;46916;40.564;-7.958;2022-08-19T05:37:07;97546.16;;;21.67;35.37
61035;BME280;46916;40.564;-7.958;2022-08-19T05:39:11;97541.63;;;21.61;35.38
61035;BME280;46916;40.564;-7.958;2022-08-19T05:41:13;97545.72;;;21.57;35.60
61035;BME280;46916;40.564;-7.958;2022-08-19T05:43:15;97545.47;;;21.51;35.69
61035;BME280;46916;40.564;-7.958;2022-08-19T05:45:16;97548.97;;;21.52;35.76
61035;BME280;46916;40.564;-7.958;2022-08-19T05:47:17;97553.22;;;21.46;35.72
61035;BME280;46916;40.564;-7.958;2022-08-19T05:49:21;97554.03;;;21.47;35.79
61035;BME280;46916;40.564;-7.958;2022-08-19T05:51:23;97561.63;;;21.43;35.90
61035;BME280;46916;40.564;-7.958;2022-08-19T05:53:25;97561.22;;;21.46;36.11
61035;BME280;46916;40.564;-7.958;2022-08-19T05:55:25;97561.19;;;21.40;35.73
61035;BME280;46916;40.564;-7.958;2022-08-19T05:57:26;97566.53;;;21.40;35.98
61035;BME280;46916;40.564;-7.958;2022-08-19T05:59:29;97561.38;;;21.38;36.09
61035;BME280;46916;40.564;-7.958;2022-08-19T06:01:29;97566.06;;;21.36;35.94
61035;BME280;46916;40.564;-7.958;2022-08-19T06:03:32;97572.56;;;21.27;36.19
61035;BME280;46916;40.564;-7.958;2022-08-19T06:05:33;97570.97;;;21.33;36.42
61035;BME280;46916;40.564;-7.958;2022-08-19T06:07:38;97570.97;;;21.33;36.03
61035;BME280;46916;40.564;-7.958;2022-08-19T06:09:40;97576.78;;;21.21;36.58
61035;BME280;46916;40.564;-7.958;2022-08-19T06:11:47;97569.53;;;21.09;36.86
61035;BME280;46916;40.564;-7.958;2022-08-19T06:13:52;97588.53;;;21.06;36.79
61035;BME280;46916;40.564;-7.958;2022-08-19T06:15:52;97594.44;;;21.01;36.99
61035;BME280;46916;40.564;-7.958;2022-08-19T06:17:53;97589.13;;;21.01;37.21
61035;BME280;46916;40.564;-7.958;2022-08-19T06:19:54;97600.59;;;21.01;36.87
61035;BME280;46916;40.564;-7.958;2022-08-19T06:21:55;97595.28;;;21.01;37.08
61035;BME280;46916;40.564;-7.958;2022-08-19T06:23:57;97605.66;;;21.18;37.10
61035;BME280;46916;40.564;-7.958;2022-08-19T06:25:58;97606.28;;;21.20;36.80
61035;BME280;46916;40.564;-7.958;2022-08-19T06:27:58;97611.25;;;21.23;36.59
61035;BME280;46916;40.564;-7.958;2022-08-19T06:29:59;97605.41;;;21.34;36.85
61035;BME280;46916;40.564;-7.958;2022-08-19T06:32:01;97613.81;;;21.38;36.85
61035;BME280;46916;40.564;-7.958;2022-08-19T06:34:05;97613.66;;;21.39;36.55
61035;BME280;46916;40.564;-7.958;2022-08-19T06:36:06;97614.94;;;21.50;36.60
61035;BME280;46916;40.564;-7.958;2022-08-19T06:38:07;97617.44;;;21.51;36.81
61035;BME280;46916;40.564;-7.958;2022-08-19T06:40:10;97611.31;;;21.58;36.83
61035;BME280;46916;40.564;-7.958;2022-08-19T06:42:12;97610.53;;;21.64;36.71
61035;BME280;46916;40.564;-7.958;2022-08-19T06:44:18;97618.31;;;21.65;36.45
61035;BME280;46916;40.564;-7.958;2022-08-19T06:46:19;97612.84;;;21.73;36.48
61035;BME280;46916;40.564;-7.958;2022-08-19T06:48:20;97609.78;;;21.76;36.84
61035;BME280;46916;40.564;-7.958;2022-08-19T06:50:22;97603.63;;;21.76;36.67
61035;BME280;46916;40.564;-7.958;2022-08-19T06:52:22;97609.00;;;21.83;36.43
61035;BME280;46916;40.564;-7.958;2022-08-19T06:54:24;97604.69;;;21.82;36.81
61035;BME280;46916;40.564;-7.958;2022-08-19T06:56:28;97612.72;;;21.88;36.60
61035;BME280;46916;40.564;-7.958;2022-08-19T06:58:35;97610.69;;;21.90;36.41
61035;BME280;46916;40.564;-7.958;2022-08-19T07:00:36;97623.19;;;21.90;36.83
61035;BME280;46916;40.564;-7.958;2022-08-19T07:02:36;97619.31;;;21.92;36.59
61035;BME280;46916;40.564;-7.958;2022-08-19T07:04:38;97620.97;;;22.00;36.89
61035;BME280;46916;40.564;-7.958;2022-08-19T07:06:39;97619.56;;;22.04;36.42
61035;BME280;46916;40.564;-7.958;2022-08-19T07:08:39;97615.47;;;22.01;36.76
61035;BME280;46916;40.564;-7.958;2022-08-19T07:10:45;97616.72;;;22.06;36.76
61035;BME280;46916;40.564;-7.958;2022-08-19T07:12:46;97621.09;;;22.13;36.92
61035;BME280;46916;40.564;-7.958;2022-08-19T07:14:47;97624.59;;;22.20;36.87
61035;BME280;46916;40.564;-7.958;2022-08-19T07:16:50;97631.81;;;22.27;36.53
61035;BME280;46916;40.564;-7.958;2022-08-19T07:18:52;97634.50;;;22.33;36.65
61035;BME280;46916;40.564;-7.958;2022-08-19T07:21:03;97640.06;;;22.38;36.69
61035;BME280;46916;40.564;-7.958;2022-08-19T07:23:04;97637.03;;;22.55;36.47
61035;BME280;46916;40.564;-7.958;2022-08-19T07:25:07;97633.81;;;22.66;36.03
61035;BME280;46916;40.564;-7.958;2022-08-19T07:27:07;97636.25;;;22.67;36.26
61035;BME280;46916;40.564;-7.958;2022-08-19T07:29:10;97642.22;;;22.76;36.05
61035;BME280;46916;40.564;-7.958;2022-08-19T07:31:17;97638.16;;;22.87;36.43
61035;BME280;46916;40.564;-7.958;2022-08-19T07:33:18;97644.91;;;22.89;35.75
61035;BME280;46916;40.564;-7.958;2022-08-19T07:35:19;97646.19;;;22.93;36.27
61035;BME280;46916;40.564;-7.958;2022-08-19T07:37:20;97645.59;;;23.05;36.22
61035;BME280;46916;40.564;-7.958;2022-08-19T07:39:24;97649.31;;;23.04;35.99
61035;BME280;46916;40.564;-7.958;2022-08-19T07:41:26;97652.19;;;23.09;36.40
61035;BME280;46916;40.564;-7.958;2022-08-19T07:43:28;97656.28;;;23.18;35.94
61035;BME280;46916;40.564;-7.958;2022-08-19T07:45:29;97656.50;;;23.30;35.88
61035;BME280;46916;40.564;-7.958;2022-08-19T07:47:32;97654.44;;;23.25;36.21
61035;BME280;46916;40.564;-7.958;2022-08-19T07:49:33;97649.53;;;23.29;35.74
61035;BME280;46916;40.564;-7.958;2022-08-19T07:51:34;97656.91;;;23.33;36.11
61035;BME280;46916;40.564;-7.958;2022-08-19T07:53:36;97659.78;;;23.38;36.15
61035;BME280;46916;40.564;-7.958;2022-08-19T07:55:37;97656.94;;;23.40;35.90
61035;BME280;46916;40.564;-7.958;2022-08-19T07:57:37;97660.63;;;23.45;35.82
61035;BME280;46916;40.564;-7.958;2022-08-19T07:59:39;97660.41;;;23.54;35.86
61035;BME280;46916;40.564;-7.958;2022-08-19T08:01:40;97666.38;;;23.56;35.81
61035;BME280;46916;40.564;-7.958;2022-08-19T08:03:41;97670.28;;;23.60;35.65
61035;BME280;46916;40.564;-7.958;2022-08-19T08:06:00;97661.47;;;23.66;35.64
61035;BME280;46916;40.564;-7.958;2022-08-19T08:08:19;97662.47;;;23.65;35.71
61035;BME280;46916;40.564;-7.958;2022-08-19T08:10:39;97662.91;;;23.68;35.73
61035;BME280;46916;40.564;-7.958;2022-08-19T08:12:40;97669.25;;;23.67;35.85
61035;BME280;46916;40.564;-7.958;2022-08-19T08:14:49;97666.19;;;23.70;35.65
61035;BME280;46916;40.564;-7.958;2022-08-19T08:16:51;97677.69;;;23.71;35.59
61035;BME280;46916;40.564;-7.958;2022-08-19T08:18:52;97669.28;;;23.74;35.82
61035;BME280;46916;40.564;-7.958;2022-08-19T08:20:54;97669.69;;;23.71;35.83
61035;BME280;46916;40.564;-7.958;2022-08-19T08:22:55;97663.91;;;23.74;35.95
61035;BME280;46916;40.564;-7.958;2022-08-19T08:25:18;97666.56;;;23.87;35.95
61035;BME280;46916;40.564;-7.958;2022-08-19T08:27:20;97667.38;;;23.94;35.52
61035;BME280;46916;40.564;-7.958;2022-08-19T08:29:21;97668.44;;;23.93;35.72
61035;BME280;46916;40.564;-7.958;2022-08-19T08:31:21;97672.91;;;24.00;35.57
61035;BME280;46916;40.564;-7.958;2022-08-19T08:33:25;97665.13;;;24.05;35.33
61035;BME280;46916;40.564;-7.958;2022-08-19T08:35:26;97655.00;;;24.07;35.41
61035;BME280;46916;40.564;-7.958;2022-08-19T08:37:27;97658.50;;;24.07;35.54
61035;BME280;46916;40.564;-7.958;2022-08-19T08:39:27;97659.09;;;24.16;35.65
61035;BME280;46916;40.564;-7.958;2022-08-19T08:43:40;97657.22;;;24.30;35.14
61035;BME280;46916;40.564;-7.958;2022-08-19T08:45:50;97656.16;;;24.31;35.20
61035;BME280;46916;40.564;-7.958;2022-08-19T08:47:57;97657.16;;;24.36;35.29
61035;BME280;46916;40.564;-7.958;2022-08-19T08:50:05;97656.13;;;24.51;35.11
61035;BME280;46916;40.564;-7.958;2022-08-19T08:52:31;97657.13;;;24.56;34.98
61035;BME280;46916;40.564;-7.958;2022-08-19T08:54:39;97658.75;;;24.57;34.86
61035;BME280;46916;40.564;-7.958;2022-08-19T08:56:41;97660.81;;;24.62;35.05
61035;BME280;46916;40.564;-7.958;2022-08-19T09:00:59;97652.53;;;24.70;34.85
61035;BME280;46916;40.564;-7.958;2022-08-19T09:03:01;97654.50;;;24.81;34.22
61035;BME280;46916;40.564;-7.958;2022-08-19T09:05:02;97657.72;;;24.96;33.95
61035;BME280;46916;40.564;-7.958;2022-08-19T09:07:19;97658.34;;;24.99;34.06
61035;BME280;46916;40.564;-7.958;2022-08-19T09:09:32;97648.22;;;25.01;33.70
61035;BME280;46916;40.564;-7.958;2022-08-19T09:14:01;97651.28;;;25.11;33.79
61035;BME280;46916;40.564;-7.958;2022-08-19T09:16:10;97657.78;;;25.22;33.52
61035;BME280;46916;40.564;-7.958;2022-08-19T09:18:12;97649.09;;;25.26;33.61
61035;BME280;46916;40.564;-7.958;2022-08-19T09:20:17;97649.88;;;25.33;33.88
61035;BME280;46916;40.564;-7.958;2022-08-19T09:22:20;97650.22;;;25.43;33.02
61035;BME280;46916;40.564;-7.958;2022-08-19T09:24:24;97654.91;;;25.48;32.89
61035;BME280;46916;40.564;-7.958;2022-08-19T09:26:25;97661.84;;;25.56;33.20
61035;BME280;46916;40.564;-7.958;2022-08-19T09:28:25;97659.53;;;25.59;32.79
61035;BME280;46916;40.564;-7.958;2022-08-19T09:30:28;97643.78;;;25.69;32.04
61035;BME280;46916;40.564;-7.958;2022-08-19T09:32:29;97654.44;;;25.76;31.86
61035;BME280;46916;40.564;-7.958;2022-08-19T09:34:32;97661.63;;;25.82;31.80
61035;BME280;46916;40.564;-7.958;2022-08-19T09:36:32;97648.22;;;25.82;31.46
61035;BME280;46916;40.564;-7.958;2022-08-19T09:38:35;97651.50;;;25.84;32.23
61035;BME280;46916;40.564;-7.958;2022-08-19T09:40:36;97657.59;;;25.91;31.74
61035;BME280;46916;40.564;-7.958;2022-08-19T09:42:37;97654.25;;;25.96;31.63
61035;BME280;46916;40.564;-7.958;2022-08-19T09:44:38;97653.81;;;25.99;31.42
61035;BME280;46916;40.564;-7.958;2022-08-19T09:46:39;97661.19;;;26.04;31.86
61035;BME280;46916;40.564;-7.958;2022-08-19T09:48:40;97659.28;;;26.11;31.17
61035;BME280;46916;40.564;-7.958;2022-08-19T09:50:41;97649.50;;;26.16;30.88
61035;BME280;46916;40.564;-7.958;2022-08-19T09:52:42;97649.06;;;26.19;30.55
61035;BME280;46916;40.564;-7.958;2022-08-19T09:54:43;97656.44;;;26.24;30.55
61035;BME280;46916;40.564;-7.958;2022-08-19T09:56:43;97647.06;;;26.33;30.36
61035;BME280;46916;40.564;-7.958;2022-08-19T09:58:45;97648.69;;;26.34;30.15
61035;BME280;46916;40.564;-7.958;2022-08-19T10:00:45;97653.34;;;26.46;30.07
61035;BME280;46916;40.564;-7.958;2022-08-19T10:02:46;97650.78;;;26.51;29.44
61035;BME280;46916;40.564;-7.958;2022-08-19T10:04:47;97651.72;;;26.56;29.71
61035;BME280;46916;40.564;-7.958;2022-08-19T10:07:07;97642.78;;;26.62;29.70
61035;BME280;46916;40.564;-7.958;2022-08-19T10:09:08;97647.22;;;26.68;29.14
61035;BME280;46916;40.564;-7.958;2022-08-19T10:11:11;97639.31;;;26.74;28.90
61035;BME280;46916;40.564;-7.958;2022-08-19T10:13:15;97638.03;;;26.76;28.99
61035;BME280;46916;40.564;-7.958;2022-08-19T10:15:16;97636.91;;;26.84;28.27
61035;BME280;46916;40.564;-7.958;2022-08-19T10:17:16;97635.75;;;26.91;28.75
61035;BME280;46916;40.564;-7.958;2022-08-19T10:19:18;97641.88;;;26.99;28.53
61035;BME280;46916;40.564;-7.958;2022-08-19T10:21:30;97629.59;;;27.03;28.04
61035;BME280;46916;40.564;-7.958;2022-08-19T10:23:30;97631.00;;;27.05;27.99
61035;BME280;46916;40.564;-7.958;2022-08-19T10:25:32;97632.00;;;27.11;28.82
61035;BME280;46916;40.564;-7.958;2022-08-19T10:27:34;97630.00;;;27.18;28.00
61035;BME280;46916;40.564;-7.958;2022-08-19T10:29:34;97626.97;;;27.26;27.84
61035;BME280;46916;40.564;-7.958;2022-08-19T10:31:35;97620.69;;;27.32;27.49
61035;BME280;46916;40.564;-7.958;2022-08-19T10:33:36;97631.31;;;27.27;27.48
61035;BME280;46916;40.564;-7.958;2022-08-19T10:35:37;97622.19;;;27.28;27.68
61035;BME280;46916;40.564;-7.958;2022-08-19T10:37:38;97618.91;;;27.26;28.02
61035;BME280;46916;40.564;-7.958;2022-08-19T10:39:39;97621.38;;;27.28;27.51
61035;BME280;46916;40.564;-7.958;2022-08-19T10:41:40;97621.97;;;27.30;27.23
61035;BME280;46916;40.564;-7.958;2022-08-19T10:43:44;97617.63;;;27.29;27.77
61035;BME280;46916;40.564;-7.958;2022-08-19T10:45:52;97617.03;;;27.27;27.31
61035;BME280;46916;40.564;-7.958;2022-08-19T10:47:53;97608.28;;;27.31;27.29
61035;BME280;46916;40.564;-7.958;2022-08-19T10:49:54;97612.28;;;27.40;27.29